Overview Statistics Trail Chart Weather Telemetry Raw packets
 

This is the latest recevied weather packets stored in our database for station/object VA2EYZ-13. If no packets are shown the sender has not sent any weather packets the latest 10 day(s).

<< 8 9 10 11 12 13 14 >>
Time Temp. Humidity Pressure Rain* Wind** Luminosity Snow
1788313607 18.33° C 74% 1016 hPa - - - -
1788313303 18.33° C 74% 1016.7 hPa - - - -
1788311992 18.89° C 73% 1016 hPa - - - -
1788309651 19.44° C 68% 1016.9 hPa - - - -
1788307566 20° C 66% 1017 hPa - - - -
1788306115 21.67° C 56% 1016 hPa - - - -
1788305341 21.67° C 54% 1016 hPa - - - -
1788301914 22.78° C 52% 1017 hPa - - - -
1788300380 23.33° C 50% 1017 hPa - - - -
1788299770 24.44° C 46% 1017 hPa - - - -
1788296294 24.44° C 44% 1016.9 hPa - - - -
1788295147 24.44° C 44% 1016.9 hPa - - - -
1788293528 25° C 44% 1016.9 hPa - - - -
1788292632 25° C 44% 1016.9 hPa - - - -
1788291569 24.44° C 44% 1016.9 hPa - - - -
1788290487 24.44° C 44% 1016.9 hPa - - - -
1788287654 24.44° C 46% 1017.1 hPa - - - -
1788286928 24.44° C 47% 1017 hPa - - - -
1788286558 24.44° C 46% 1017.4 hPa - - - -
1788285494 23.89° C 48% 1017.4 hPa - - - -
1788284516 23.89° C 48% 1017.4 hPa - - - -
1788283419 23.89° C 50% 1017 hPa - - - -
1788282559 23.33° C 50% 1017 hPa - - - -
1788282171 23.33° C 48% 1017 hPa - - - -
1788281512 23.33° C 48% 1017 hPa - - - -

* Rain since midnight (hover to see other rain measurements)
** Current wind speed in m/s (hover to see current wind gust speed)